フライト前のフライト

LUXURY FLIGHT

080-7560-1817

羽田空港本店:東京都大田区羽田空港3-3-2
第1旅客ターミナル5階
営業時間:10:00~20:00 定休日:年中無休
電話番号:080-7560-1817

セントレア店:愛知県常滑市セントレア1-1
FLIGHT OF DREAMS FLIGHT PARK
営業時間:10:00~20:00 定休日:年中無休
電話番号:080-4945-5666

lv

フライト前のフライト

STAFF BLOG

2019/05/08 フライト前のフライト

こんにちはー

 

セントレア店です

 

本日の14:00のMETAR

RJGG 080500Z 16009KT 9999 FEW030 SCT/// 20/M00 Q1012 NOSIG

まぁまぁ気象条件的にはぼちぼちのセントレア!!

 

さて、先日午前の抽選(セントレア店では日々無料抽選枠を設けております)

で当選されたなかで,ピックアップ

 

なんとこの後海外旅行に行かれるご友人同士でした

 

かなりの高倍率を引き当てた強運の持ち主!!!

 

というわけで~~早速やっちゃいましょう

 

この日も只今と同様セントレアの使用RWYは18!ほな!私たちも18から離陸しましょ!

 

離陸後右旋回~木曽川~弥富~蟹江~と某鉄道沿線を飛び,ファイナルへ!

%e7%84%a1%e9%a1%8c

なかなか安定してますやん

 

エクセレント~~~~

 

この調子で海外良好もエクセレントで楽しんできてくださーーい!!

 

ご帰国までくれぐれもお気をつけて!

 

この度は当選おめでとうございました

 

またのお越しをお待ちしております。

 

「感謝」

TOP